Vaaraa aiheuttavia sääilmiöitä ei ole odotettavissa.    Ei varoituksia

Webkamera Lisätietoa Webcam


Yksityisiä sääasemia lähellä:

Sääasema Ruovesi, Lehtissaari

Sääasema Juupajoki

Sääasema Orivesi

Sääasema Muurame

Sääasema Jyväskylä

Sääasema Vihtavuori


Löydät sääaseman tiedot myös:

Finland Weather Exchange

European Weather Network

Weather Underground

AWEKAS



Säätiedot lähimmiltä METAR asemilta

   
EFHA - Halli (Fin-Afb), Finland
Etäisyys asemalta: Kaakko 25 km
Päivitetty: 19.08.2018 14:50
Selkeää  
Selkeää  
   Tuuli: Länsi 6.7 m/s
Tuuli: Länsi 6.7 m/s
Lämpötila: 21°C
Kastepiste: 8°C
Kosteus: 43%
Ilmanpaine: 1006 hPa
Näkyvyys: Enemmän kuin 10 km
Pilvitiedot: Selkeää
EFHA 191150Z AUTO 26013KT CAVOK 21/08 Q1006
EFJY - Jyvaskyla (Mil/Civ), Finland
Etäisyys asemalta: Koillinen 75 km
Päivitetty: 19.08.2018 14:50
Selkeää  
Selkeää  
   Tuuli: Länsilounas 5.7 m/s
Tuuli: Länsilounas 5.7 m/s
Lämpötila: 21°C
Kastepiste: 8°C
Kosteus: 43%
Ilmanpaine: 1005 hPa
Näkyvyys: Enemmän kuin 10 km
Pilvitiedot: Selkeää
EFJY 191150Z AUTO 25011KT CAVOK 21/08 Q1005
EFTP - Tampere/Pirkkala, Finland
Etäisyys asemalta: Lounas 81 km
Päivitetty: 19.08.2018 14:50
Vähäistä pilvisyyttä  
Vähäistä pilvisyyttä  
   Tuuli: Länsi 7.2 m/s
Tuuli: Länsi 7.2 m/s
Lämpötila: 20°C
Kastepiste: 9°C
Kosteus: 49%
Ilmanpaine: 1008 hPa
Pilvisyys: Vähäistä pilvisyyttä
Näkyvyys: Enemmän kuin 10 km
Pilvitiedot: Vähäistä pilvisyyttä 1402 m
EFTP 191150Z AUTO 26014KT 9999 FEW046 20/09 Q1008
EFSI - Seinajoki-Ilmajoki, Finland
Etäisyys asemalta: Luode 114 km
Päivitetty: 19.08.2018 14:50
  
  
   Tuuli: Länsi 3.6 m/s
Tuuli: Länsi 3.6 m/s
Lämpötila: 18°C
Kastepiste: 9°C
Kosteus: 56%
Ilmanpaine: 1006 hPa
Näkyvyys: Enemmän kuin 10 km
EFSI 191150Z AUTO 28007KT 220V310 9999 ////// 18/09 Q1006
EFMI - Mikkeli, Finland
Etäisyys asemalta: Itäkaakko 147 km
Päivitetty: 19.08.2018 14:50
Melkein pilvistä  
Melkein pilvistä  
   Tuuli: Lounas 3.6 m/s
Tuuli: Lounas 3.6 m/s
Lämpötila: 20°C
Kastepiste: 16°C
Kosteus: 78%
Ilmanpaine: 1006 hPa
Pilvisyys: Melkein pilvistä
Näkyvyys: Enemmän kuin 10 km
Pilvitiedot: Puolipilvistä 579 m,
Melkein pilvistä 2042 m
EFMI 191150Z AUTO 23007KT 200V270 9999 SCT019 BKN067 20/16 Q1006
EFPO - Pori (Mil/Civ), Finland
Etäisyys asemalta: Länsilounas 154 km
Päivitetty: 19.08.2018 14:50
Melkein pilvistä  
Melkein pilvistä  
   Tuuli: Länsilounas 4.6 m/s
Tuuli: Länsilounas 4.6 m/s
Lämpötila: 20°C
Kastepiste: 12°C
Kosteus: 60%
Ilmanpaine: 1008 hPa
Pilvisyys: Melkein pilvistä
Näkyvyys: Enemmän kuin 10 km
Pilvitiedot: Melkein pilvistä 762 m
EFPO 191150Z AUTO 25009KT 200V300 9999 BKN025/// 20/12 Q1008
EFUT - Utti (Fin-Afb), Finland
Etäisyys asemalta: Kaakko 180 km
Päivitetty: 19.08.2018 14:50
Puolipilvistä  
Puolipilvistä  
   Tuuli: Länsilounas 3.6 m/s
Tuuli: Länsilounas 3.6 m/s
Lämpötila: 19°C
Kastepiste: 15°C
Kosteus: 78%
Ilmanpaine: 1007 hPa
Pilvisyys: Puolipilvistä
Näkyvyys: Enemmän kuin 10 km
Pilvitiedot: Puolipilvistä 427 m,
Puolipilvistä 2012 m
EFUT 191150Z AUTO 24007KT 210V270 9999 SCT014 SCT066 19/15 Q1007
EFVA - Vaasa, Finland
Etäisyys asemalta: Luode 180 km
Päivitetty: 19.08.2018 14:50
Selkeää  
Selkeää  
   Tuuli: Länsi 6.2 m/s
Tuuli: Länsi 6.2 m/s
Lämpötila: 18°C
Kastepiste: 8°C
Kosteus: 52%
Ilmanpaine: 1006 hPa
Näkyvyys: Enemmän kuin 10 km
Pilvitiedot: Selkeää
EFVA 191150Z AUTO 28012KT 210V310 CAVOK 18/08 Q1006
EFHK - Helsinki/Vantaa, Finland
Etäisyys asemalta: Etelä 191 km
Päivitetty: 19.08.2018 14:50
Puolipilvistä  
Puolipilvistä  
   Tuuli: Länsilounas 7.7 m/s
Tuuli: Länsilounas 7.7 m/s
Lämpötila: 22°C
Kastepiste: 10°C
Kosteus: 47%
Ilmanpaine: 1008 hPa
Pilvisyys: Puolipilvistä
Näkyvyys: Enemmän kuin 10 km
Pilvitiedot: Puolipilvistä 1372 m
EFHK 191150Z 24015KT 9999 SCT045 22/10 Q1008 NOSIG

Alkuperäinen skripti  Saratoga-weather.org Sovitettu myös templatelle  Weerstation Leuven

Laitteet joita käytämme:

Sääasema
Davis VP2

Sääasemaohjelma
Cumulus

Sääaseman palvelin
HP ProBook 6460b

Palveluntarjoaja
Radicenter

Davis VP2

Cumulus

HP ProBook 6460b

Radicenter




Flag Counter Cumulus Top Weather Sites